createdAt,value
2023-03-31T00:01:11.252Z,12.36
2023-03-31T00:03:44.587Z,12.37
2023-03-31T00:06:18.837Z,12.37
2023-03-31T00:08:52.308Z,12.34
2023-03-31T00:11:21.912Z,12.33
2023-03-31T00:13:50.446Z,12.34
2023-03-31T00:16:18.972Z,12.34
2023-03-31T00:18:51.241Z,12.19
2023-03-31T00:21:29.838Z,12.39
2023-03-31T00:24:01.064Z,12.36
2023-03-31T00:26:30.175Z,12.37
2023-03-31T00:28:59.745Z,12.41
2023-03-31T00:31:28.862Z,12.42
2023-03-31T00:33:57.496Z,12.43
2023-03-31T00:36:28.664Z,12.31
2023-03-31T00:39:00.515Z,12.43
2023-03-31T00:41:30.398Z,12.42
2023-03-31T00:44:09.571Z,12.43
2023-03-31T00:46:47.275Z,12.37
2023-03-31T00:49:22.148Z,12.41
2023-03-31T00:51:54.082Z,12.43
2023-03-31T00:54:26.144Z,12.42
2023-03-31T00:56:58.784Z,12.37
2023-03-31T00:59:31.660Z,12.18
2023-03-31T01:02:03.101Z,12.47
2023-03-31T01:04:34.961Z,12.48
2023-03-31T01:07:12.621Z,12.47
2023-03-31T01:09:42.256Z,12.45
2023-03-31T01:12:12.379Z,12.47
2023-03-31T01:14:40.904Z,12.47
2023-03-31T01:17:10.722Z,12.49
2023-03-31T01:19:59.932Z,12.53
2023-03-31T01:23:08.016Z,12.40
2023-03-31T01:26:05.889Z,12.49
2023-03-31T01:28:42.474Z,12.44
2023-03-31T01:31:43.420Z,12.50
2023-03-31T01:34:47.160Z,12.44
2023-03-31T01:37:57.603Z,12.44
2023-03-31T01:41:02.473Z,12.48
2023-03-31T01:43:39.035Z,12.49
2023-03-31T01:46:18.543Z,12.30
2023-03-31T01:48:57.122Z,12.52
2023-03-31T01:51:34.101Z,12.49
2023-03-31T01:54:12.671Z,12.46
2023-03-31T01:56:45.205Z,12.43
2023-03-31T01:59:18.469Z,12.43
2023-03-31T02:01:52.658Z,12.47
2023-03-31T02:04:24.761Z,12.47
2023-03-31T02:06:57.494Z,12.48
2023-03-31T02:09:30.568Z,12.51
2023-03-31T02:12:00.734Z,12.49
2023-03-31T02:14:33.261Z,12.53
2023-03-31T02:17:04.061Z,12.53
2023-03-31T02:19:36.483Z,12.33
2023-03-31T02:22:08.697Z,12.50
2023-03-31T02:24:40.345Z,12.42
2023-03-31T02:27:13.943Z,12.53
2023-03-31T02:29:44.240Z,12.53
2023-03-31T02:32:17.386Z,12.55
2023-03-31T02:34:45.819Z,12.58
2023-03-31T02:37:14.621Z,12.60
2023-03-31T02:39:49.609Z,12.61
2023-03-31T02:42:18.528Z,12.50
2023-03-31T02:44:48.327Z,12.61
2023-03-31T02:47:20.272Z,12.65
2023-03-31T02:49:51.944Z,12.63
2023-03-31T02:52:46.715Z,12.64
2023-03-31T02:55:44.068Z,12.63
2023-03-31T02:58:40.110Z,12.61
2023-03-31T03:01:17.474Z,12.60
2023-03-31T03:03:59.168Z,12.63
2023-03-31T03:06:40.646Z,12.61
2023-03-31T03:09:30.078Z,12.62
2023-03-31T03:12:09.915Z,12.65
2023-03-31T03:14:47.472Z,12.63
2023-03-31T03:17:23.874Z,12.65
2023-03-31T03:19:54.960Z,12.65
2023-03-31T03:22:23.499Z,12.64
2023-03-31T03:24:52.591Z,12.67
2023-03-31T03:27:22.527Z,12.67
2023-03-31T03:29:51.184Z,12.66
2023-03-31T03:32:21.060Z,12.65
2023-03-31T03:34:49.417Z,12.60
2023-03-31T03:37:17.887Z,12.57
2023-03-31T03:39:47.324Z,12.56
2023-03-31T03:42:15.821Z,12.50
2023-03-31T03:44:44.278Z,12.47
2023-03-31T03:47:12.706Z,12.45
2023-03-31T03:49:42.629Z,12.50
2023-03-31T03:52:11.122Z,12.54
2023-03-31T03:54:39.494Z,12.56
2023-03-31T03:57:07.993Z,12.57
2023-03-31T03:59:36.322Z,12.54
2023-03-31T04:02:04.928Z,12.52
2023-03-31T04:04:33.479Z,12.53
2023-03-31T04:07:03.374Z,12.54
2023-03-31T04:09:31.908Z,12.55
2023-03-31T04:12:00.237Z,12.55
2023-03-31T04:14:28.624Z,12.57
2023-03-31T04:16:58.746Z,12.57
2023-03-31T04:19:27.694Z,12.39
2023-03-31T04:22:03.164Z,12.57
2023-03-31T04:24:33.830Z,12.53
2023-03-31T04:27:03.162Z,12.51
2023-03-31T04:29:33.954Z,12.48
2023-03-31T04:32:03.016Z,12.26
2023-03-31T04:34:36.066Z,12.48
2023-03-31T04:37:05.468Z,12.45
2023-03-31T04:39:35.229Z,12.38
2023-03-31T04:42:03.793Z,12.29
2023-03-31T04:44:32.168Z,12.32
2023-03-31T04:47:03.288Z,12.35
2023-03-31T04:49:33.766Z,12.34
2023-03-31T04:52:02.258Z,12.36
2023-03-31T04:54:30.774Z,12.37
2023-03-31T04:57:00.656Z,12.34
2023-03-31T04:59:29.073Z,12.31
2023-03-31T05:01:57.486Z,12.31
2023-03-31T05:04:26.647Z,12.28
2023-03-31T05:06:55.356Z,12.25
2023-03-31T05:09:23.991Z,12.23
2023-03-31T05:11:52.545Z,12.25
2023-03-31T05:14:22.544Z,12.27
2023-03-31T05:16:50.967Z,12.25
2023-03-31T05:19:19.552Z,12.23
2023-03-31T05:21:47.981Z,12.21
2023-03-31T05:24:16.533Z,12.20
2023-03-31T05:26:48.522Z,12.20
2023-03-31T05:29:17.891Z,12.20
2023-03-31T05:31:48.314Z,12.21
2023-03-31T05:34:16.933Z,12.17
2023-03-31T05:36:45.366Z,12.14
2023-03-31T05:39:13.731Z,12.15
2023-03-31T05:41:42.206Z,12.13
2023-03-31T05:44:10.783Z,12.16
2023-03-31T05:46:39.252Z,12.20
2023-03-31T05:49:09.046Z,12.16
2023-03-31T05:51:37.426Z,12.21
2023-03-31T05:54:06.435Z,12.26
2023-03-31T05:56:34.893Z,12.25
2023-03-31T05:59:05.236Z,12.20
2023-03-31T06:01:34.021Z,12.19
2023-03-31T06:04:02.396Z,12.16
2023-03-31T06:06:34.710Z,12.18
2023-03-31T06:09:04.968Z,11.23
2023-03-31T06:11:33.650Z,12.27
2023-03-31T06:14:02.039Z,12.29
2023-03-31T06:16:30.427Z,12.28
2023-03-31T06:18:59.130Z,12.32
2023-03-31T06:21:27.630Z,12.34
2023-03-31T06:23:58.466Z,12.38
2023-03-31T06:26:27.554Z,12.41
2023-03-31T06:28:56.058Z,12.41
2023-03-31T06:31:26.376Z,12.48
2023-03-31T06:33:54.931Z,12.52
2023-03-31T06:36:24.228Z,12.55
2023-03-31T06:38:52.830Z,12.59
2023-03-31T06:41:22.812Z,12.45
2023-03-31T06:43:51.375Z,12.53
2023-03-31T06:46:19.837Z,12.69
2023-03-31T06:48:48.336Z,12.74
2023-03-31T06:51:17.039Z,12.65
2023-03-31T06:53:46.419Z,12.77
2023-03-31T06:56:14.820Z,12.78
2023-03-31T06:58:44.615Z,12.79
2023-03-31T07:01:13.062Z,12.83
2023-03-31T07:03:41.470Z,12.87
2023-03-31T07:06:09.910Z,12.91
2023-03-31T07:08:38.201Z,12.98
2023-03-31T07:11:06.917Z,13.08
2023-03-31T07:13:35.564Z,13.23
2023-03-31T07:16:07.451Z,13.35
2023-03-31T07:18:36.784Z,13.53
2023-03-31T07:21:09.817Z,13.67
2023-03-31T07:23:38.888Z,13.74
2023-03-31T07:26:07.599Z,13.84
2023-03-31T07:28:36.670Z,13.75
2023-03-31T07:31:12.581Z,14.11
2023-03-31T07:33:41.204Z,14.21
2023-03-31T07:36:13.353Z,14.26
2023-03-31T07:38:43.780Z,14.35
2023-03-31T07:41:13.267Z,14.43
2023-03-31T07:43:41.973Z,14.54
2023-03-31T07:46:18.272Z,14.70
2023-03-31T07:48:47.872Z,14.80
2023-03-31T07:51:17.815Z,14.88
2023-03-31T07:53:47.718Z,14.78
2023-03-31T07:56:20.918Z,15.10
2023-03-31T07:58:51.666Z,15.30
2023-03-31T08:01:26.892Z,15.51
2023-03-31T08:03:56.064Z,15.61
2023-03-31T08:06:26.529Z,15.50
2023-03-31T08:08:55.222Z,15.73
2023-03-31T08:11:24.523Z,15.52
2023-03-31T08:13:59.593Z,15.75
2023-03-31T08:16:32.656Z,15.71
2023-03-31T08:19:03.348Z,15.75
2023-03-31T08:21:32.300Z,15.82
2023-03-31T08:24:11.358Z,15.90
2023-03-31T08:26:41.664Z,15.94
2023-03-31T08:29:13.709Z,16.04
2023-03-31T08:31:44.678Z,16.16
2023-03-31T08:34:17.179Z,16.20
2023-03-31T08:36:46.210Z,16.27
2023-03-31T08:39:19.605Z,16.30
2023-03-31T08:41:55.861Z,16.28
2023-03-31T08:44:31.135Z,16.27
2023-03-31T08:47:03.824Z,16.25
2023-03-31T08:49:38.939Z,16.25
2023-03-31T08:52:12.982Z,16.24
2023-03-31T08:54:45.715Z,16.21
2023-03-31T08:57:20.413Z,16.10
2023-03-31T08:59:49.663Z,16.14
2023-03-31T09:02:26.345Z,15.95
2023-03-31T09:05:23.885Z,16.12
2023-03-31T09:08:00.202Z,16.02
2023-03-31T09:10:39.991Z,15.89
2023-03-31T09:13:42.669Z,15.81
2023-03-31T09:16:16.731Z,15.77
2023-03-31T09:18:47.244Z,15.78
2023-03-31T09:21:22.587Z,15.52
2023-03-31T09:23:57.380Z,15.76
2023-03-31T09:26:32.559Z,15.82
2023-03-31T09:29:03.620Z,15.92
2023-03-31T09:31:34.122Z,16.03
2023-03-31T09:34:14.883Z,16.15
2023-03-31T09:36:43.804Z,16.19
2023-03-31T09:39:15.456Z,16.19
2023-03-31T09:41:46.777Z,16.21
2023-03-31T09:44:27.982Z,16.33
2023-03-31T09:46:57.215Z,16.39
2023-03-31T09:49:29.955Z,16.38
2023-03-31T09:52:08.403Z,16.52
2023-03-31T09:54:40.675Z,16.62
2023-03-31T09:57:26.021Z,16.76
2023-03-31T09:59:55.044Z,16.81
2023-03-31T10:02:35.356Z,16.91
2023-03-31T10:05:07.002Z,16.98
2023-03-31T10:07:36.179Z,17.15
2023-03-31T10:10:25.136Z,17.33
2023-03-31T10:12:54.385Z,17.57
2023-03-31T10:15:27.007Z,17.82
2023-03-31T10:17:55.816Z,17.99
2023-03-31T10:20:38.478Z,18.22
2023-03-31T10:23:18.136Z,18.38
2023-03-31T10:25:48.160Z,18.55
2023-03-31T10:28:19.968Z,18.72
2023-03-31T10:30:50.952Z,18.88
2023-03-31T10:33:23.783Z,18.95
2023-03-31T10:35:58.888Z,18.90
2023-03-31T10:38:32.007Z,19.18
2023-03-31T10:41:02.319Z,19.21
2023-03-31T10:43:35.858Z,19.28
2023-03-31T10:46:04.437Z,19.33
2023-03-31T10:48:34.418Z,19.41
2023-03-31T10:51:07.719Z,19.53
2023-03-31T10:53:42.770Z,19.49
2023-03-31T10:56:20.647Z,19.79
2023-03-31T10:59:05.648Z,19.65
2023-03-31T11:01:43.366Z,20.13
2023-03-31T11:04:30.704Z,20.25
2023-03-31T11:07:07.839Z,20.28
2023-03-31T11:09:48.519Z,20.31
2023-03-31T11:12:22.990Z,20.34
2023-03-31T11:15:03.110Z,20.41
2023-03-31T11:17:48.895Z,20.49
2023-03-31T11:20:30.802Z,20.53
2023-03-31T11:23:09.136Z,20.50
2023-03-31T11:25:45.132Z,20.38
2023-03-31T11:28:27.331Z,20.38
2023-03-31T11:31:08.267Z,20.57
2023-03-31T11:33:47.256Z,20.66
2023-03-31T11:36:30.263Z,20.69
2023-03-31T11:39:20.821Z,20.78
2023-03-31T11:41:51.773Z,20.78
2023-03-31T11:44:21.903Z,20.79
2023-03-31T11:46:57.443Z,20.69
2023-03-31T11:49:29.062Z,20.62
2023-03-31T11:52:01.379Z,20.46
2023-03-31T11:54:37.259Z,20.70
2023-03-31T11:57:11.904Z,20.73
2023-03-31T11:59:41.905Z,20.65
2023-03-31T12:02:19.255Z,20.56
2023-03-31T12:04:50.854Z,20.70
2023-03-31T12:07:25.573Z,20.73
2023-03-31T12:10:06.045Z,20.81
2023-03-31T12:12:40.116Z,20.84
2023-03-31T12:15:18.459Z,20.91
2023-03-31T12:17:54.052Z,20.88
2023-03-31T12:20:29.934Z,20.79
2023-03-31T12:23:00.253Z,20.75
2023-03-31T12:25:40.640Z,20.71
2023-03-31T12:28:10.220Z,20.60
2023-03-31T12:30:44.399Z,20.60
2023-03-31T12:33:20.706Z,20.53
2023-03-31T12:36:01.755Z,20.53
2023-03-31T12:38:43.011Z,20.54
2023-03-31T12:41:21.157Z,20.60
2023-03-31T12:44:07.667Z,20.51
2023-03-31T12:46:59.493Z,20.66
2023-03-31T12:49:41.372Z,20.72
2023-03-31T12:52:17.555Z,20.78
2023-03-31T12:55:25.506Z,20.93
2023-03-31T12:58:15.511Z,21.02
2023-03-31T13:01:05.427Z,21.08
2023-03-31T13:04:06.406Z,21.09
2023-03-31T13:07:02.272Z,21.09
2023-03-31T13:09:48.637Z,21.06
2023-03-31T13:12:20.230Z,21.03
2023-03-31T13:14:54.380Z,21.11
2023-03-31T13:17:27.266Z,21.27
2023-03-31T13:19:57.776Z,21.37
2023-03-31T13:22:35.700Z,21.47
2023-03-31T13:25:43.379Z,21.51
2023-03-31T13:28:33.776Z,21.51
2023-03-31T13:33:41.251Z,21.67
2023-03-31T13:36:26.647Z,21.63
2023-03-31T13:39:11.180Z,21.52
2023-03-31T13:41:54.669Z,21.53
2023-03-31T13:44:55.588Z,21.53
2023-03-31T13:48:17.421Z,21.52
2023-03-31T13:51:05.736Z,21.53
2023-03-31T13:54:05.520Z,21.56
2023-03-31T13:57:12.917Z,21.56
2023-03-31T14:00:21.603Z,21.47
2023-03-31T14:03:07.295Z,21.38
2023-03-31T14:05:38.860Z,21.35
2023-03-31T14:08:12.901Z,21.42
2023-03-31T14:10:43.456Z,21.46
2023-03-31T14:13:16.343Z,21.29
2023-03-31T14:15:50.639Z,21.46
2023-03-31T14:18:25.783Z,21.37
2023-03-31T14:21:07.170Z,21.27
2023-03-31T14:23:48.879Z,21.14
2023-03-31T14:26:30.280Z,21.01
2023-03-31T14:29:11.643Z,21.03
2023-03-31T14:31:46.270Z,21.02
2023-03-31T14:34:48.539Z,20.80
2023-03-31T14:37:21.316Z,20.60
2023-03-31T14:39:53.111Z,20.56
2023-03-31T14:42:25.512Z,20.50
2023-03-31T14:44:57.959Z,20.77
2023-03-31T14:47:29.425Z,20.56
2023-03-31T14:50:05.208Z,20.66
2023-03-31T14:52:35.963Z,20.61
2023-03-31T14:55:04.805Z,20.49
2023-03-31T14:57:37.159Z,20.48
2023-03-31T15:00:10.285Z,20.47
2023-03-31T15:02:42.574Z,20.50
2023-03-31T15:05:24.193Z,19.89
2023-03-31T15:07:52.853Z,20.39
2023-03-31T15:10:22.940Z,20.38
2023-03-31T15:12:52.305Z,20.19
2023-03-31T15:15:21.903Z,19.97
2023-03-31T15:17:50.483Z,19.82
2023-03-31T15:20:35.024Z,19.72
2023-03-31T15:23:07.931Z,19.51
2023-03-31T15:25:41.133Z,19.45
2023-03-31T15:28:15.224Z,19.26
2023-03-31T15:30:47.697Z,19.40
2023-03-31T15:33:21.685Z,19.38
2023-03-31T15:35:51.635Z,19.46
2023-03-31T15:38:20.485Z,19.54
2023-03-31T15:40:53.860Z,19.67
2023-03-31T15:43:30.686Z,19.72
2023-03-31T15:46:00.338Z,19.78
2023-03-31T15:48:33.927Z,19.77
2023-03-31T15:51:08.423Z,19.61
2023-03-31T15:53:39.221Z,19.74
2023-03-31T15:56:08.510Z,19.60
2023-03-31T15:58:58.308Z,19.54
2023-03-31T16:01:33.444Z,19.53
2023-03-31T16:04:07.180Z,19.57
2023-03-31T16:06:46.647Z,19.52
2023-03-31T16:09:18.667Z,19.41
2023-03-31T16:11:50.258Z,19.31
2023-03-31T16:14:23.958Z,19.24
2023-03-31T16:16:56.323Z,19.10
2023-03-31T16:19:28.997Z,18.99
2023-03-31T16:22:02.314Z,18.88
2023-03-31T16:24:33.938Z,18.70
2023-03-31T16:27:06.509Z,18.33
2023-03-31T16:29:37.170Z,17.99
2023-03-31T16:32:12.110Z,17.54
2023-03-31T16:34:58.602Z,17.20
2023-03-31T16:37:28.755Z,17.01
2023-03-31T16:39:57.938Z,16.82
2023-03-31T16:42:27.121Z,16.78
2023-03-31T16:45:13.146Z,16.75
2023-03-31T16:47:45.298Z,16.66
2023-03-31T16:50:15.327Z,16.52
2023-03-31T16:52:45.491Z,16.55
2023-03-31T16:55:13.995Z,16.54
2023-03-31T16:57:42.689Z,16.58
2023-03-31T17:00:12.242Z,16.58
2023-03-31T17:02:40.673Z,16.55
2023-03-31T17:05:15.254Z,16.48
2023-03-31T17:07:47.331Z,16.49
2023-03-31T17:10:16.322Z,16.46
2023-03-31T17:12:44.706Z,16.47
2023-03-31T17:15:14.056Z,16.42
2023-03-31T17:17:42.483Z,16.36
2023-03-31T17:20:12.263Z,16.35
2023-03-31T17:22:40.763Z,16.23
2023-03-31T17:25:11.468Z,16.30
2023-03-31T17:27:40.054Z,16.29
2023-03-31T17:30:10.018Z,16.23
2023-03-31T17:32:38.692Z,16.24
2023-03-31T17:35:08.147Z,16.22
2023-03-31T17:37:37.343Z,16.15
2023-03-31T17:40:06.305Z,15.99
2023-03-31T17:42:37.190Z,15.96
2023-03-31T17:45:08.929Z,15.85
2023-03-31T17:47:38.019Z,15.59
2023-03-31T17:50:08.902Z,15.22
2023-03-31T17:52:37.647Z,14.77
2023-03-31T17:55:06.686Z,14.56
2023-03-31T17:57:36.980Z,14.40
2023-03-31T18:00:09.047Z,14.32
2023-03-31T18:02:40.895Z,14.24
2023-03-31T18:05:10.948Z,14.11
2023-03-31T18:07:39.743Z,14.04
2023-03-31T18:10:10.117Z,13.95
2023-03-31T18:12:39.548Z,13.84
2023-03-31T18:15:11.102Z,13.74
2023-03-31T18:17:39.635Z,13.71
2023-03-31T18:20:10.036Z,13.66
2023-03-31T18:22:38.521Z,13.60
2023-03-31T18:25:08.576Z,13.55
2023-03-31T18:27:37.391Z,13.49
2023-03-31T18:30:06.622Z,13.31
2023-03-31T18:32:36.959Z,13.40
2023-03-31T18:35:06.280Z,13.43
2023-03-31T18:37:35.256Z,13.40
2023-03-31T18:40:03.778Z,13.37
2023-03-31T18:42:32.183Z,13.38
2023-03-31T18:45:00.648Z,13.38
2023-03-31T18:47:29.228Z,13.35
2023-03-31T18:49:59.122Z,13.34
2023-03-31T18:52:27.496Z,13.31
2023-03-31T18:54:56.113Z,13.26
2023-03-31T18:57:25.208Z,13.21
2023-03-31T18:59:54.536Z,13.20
2023-03-31T19:02:23.204Z,13.21
2023-03-31T19:04:51.678Z,13.22
2023-03-31T19:07:21.533Z,13.14
2023-03-31T19:09:49.984Z,13.09
2023-03-31T19:12:18.457Z,13.05
2023-03-31T19:14:46.910Z,13.01
2023-03-31T19:17:15.361Z,12.98
2023-03-31T19:19:43.871Z,13.02
2023-03-31T19:22:12.365Z,12.97
2023-03-31T19:24:42.387Z,13.02
2023-03-31T19:27:12.276Z,13.06
2023-03-31T19:29:41.757Z,13.78
2023-03-31T19:32:10.293Z,13.43
2023-03-31T19:34:39.852Z,13.20
2023-03-31T19:37:08.258Z,13.10
2023-03-31T19:39:37.654Z,13.14
2023-03-31T19:42:07.512Z,13.17
2023-03-31T19:44:35.914Z,13.19
2023-03-31T19:47:04.568Z,13.24
2023-03-31T19:49:33.080Z,13.25
2023-03-31T19:52:01.522Z,13.29
2023-03-31T19:54:29.975Z,13.24
2023-03-31T19:56:58.431Z,13.28
2023-03-31T19:59:28.596Z,13.34
2023-03-31T20:01:58.845Z,13.38
2023-03-31T20:04:27.345Z,13.40
2023-03-31T20:06:55.886Z,13.46
2023-03-31T20:09:26.602Z,13.36
2023-03-31T20:11:55.250Z,13.46
2023-03-31T20:14:24.358Z,13.50
2023-03-31T20:16:54.800Z,13.56
2023-03-31T20:19:23.458Z,13.56
2023-03-31T20:21:56.138Z,13.56
2023-03-31T20:24:25.013Z,13.16
2023-03-31T20:26:53.610Z,13.35
2023-03-31T20:29:22.590Z,13.32
2023-03-31T20:31:53.746Z,13.40
2023-03-31T20:34:22.889Z,13.44
2023-03-31T20:36:53.029Z,13.49
2023-03-31T20:39:21.959Z,13.54
2023-03-31T20:41:51.231Z,13.55
2023-03-31T20:44:19.739Z,13.59
2023-03-31T20:46:48.703Z,13.59
2023-03-31T20:49:18.921Z,13.60
2023-03-31T20:51:47.698Z,13.66
2023-03-31T20:54:16.221Z,13.68
2023-03-31T20:56:44.886Z,13.67
2023-03-31T20:59:16.155Z,13.66
2023-03-31T21:01:47.314Z,13.65
2023-03-31T21:04:17.138Z,13.65
2023-03-31T21:06:48.675Z,13.66
2023-03-31T21:09:17.800Z,13.58
2023-03-31T21:11:46.743Z,13.57
2023-03-31T21:14:16.521Z,13.62
2023-03-31T21:16:45.067Z,13.60
2023-03-31T21:19:13.647Z,13.62
2023-03-31T21:21:43.352Z,13.66
2023-03-31T21:24:14.696Z,13.69
2023-03-31T21:26:45.843Z,13.58
2023-03-31T21:29:14.377Z,13.58
2023-03-31T21:31:45.025Z,13.55
2023-03-31T21:34:13.581Z,13.60
2023-03-31T21:36:42.365Z,13.40
2023-03-31T21:39:11.479Z,13.59
2023-03-31T21:41:41.729Z,13.65
2023-03-31T21:44:10.241Z,13.59
2023-03-31T21:46:40.147Z,13.59
2023-03-31T21:49:08.706Z,13.56
2023-03-31T21:51:37.251Z,13.53
2023-03-31T21:54:06.982Z,13.51
2023-03-31T21:56:35.442Z,13.45
2023-03-31T21:59:05.537Z,13.42
2023-03-31T22:01:34.386Z,13.46
2023-03-31T22:04:02.877Z,13.43
2023-03-31T22:06:31.853Z,13.36
2023-03-31T22:09:00.676Z,13.38
2023-03-31T22:11:29.148Z,13.25
2023-03-31T22:13:58.173Z,13.04
2023-03-31T22:16:28.113Z,13.16
2023-03-31T22:18:56.944Z,13.34
2023-03-31T22:21:43.860Z,13.35
2023-03-31T22:24:13.673Z,13.39
2023-03-31T22:26:42.068Z,13.24
2023-03-31T22:29:15.102Z,13.32
2023-03-31T22:31:44.973Z,13.29
2023-03-31T22:34:13.405Z,13.24
2023-03-31T22:36:43.047Z,13.19
2023-03-31T22:39:11.489Z,13.12
2023-03-31T22:41:39.920Z,13.08
2023-03-31T22:44:08.576Z,13.03
2023-03-31T22:46:38.600Z,12.97
2023-03-31T22:49:08.544Z,12.98
2023-03-31T22:51:37.267Z,12.93
2023-03-31T22:54:05.649Z,12.85
2023-03-31T22:56:34.110Z,12.75
2023-03-31T22:59:02.555Z,12.85
2023-03-31T23:01:31.191Z,12.87
2023-03-31T23:04:00.711Z,12.78
2023-03-31T23:06:30.925Z,12.89
2023-03-31T23:08:59.905Z,12.71
2023-03-31T23:11:28.521Z,12.83
2023-03-31T23:13:56.888Z,12.82
2023-03-31T23:16:27.496Z,12.82
2023-03-31T23:18:56.660Z,12.78
2023-03-31T23:21:27.208Z,12.84
2023-03-31T23:23:59.680Z,12.81
2023-03-31T23:26:30.251Z,12.62
2023-03-31T23:28:59.208Z,12.86
2023-03-31T23:31:29.901Z,12.85
2023-03-31T23:33:58.898Z,12.81
2023-03-31T23:36:27.739Z,12.82
2023-03-31T23:38:58.455Z,12.86
2023-03-31T23:41:27.226Z,12.82
2023-03-31T23:43:57.894Z,12.81
2023-03-31T23:46:26.809Z,12.70
2023-03-31T23:48:56.004Z,12.78
2023-03-31T23:51:24.701Z,12.69
2023-03-31T23:53:53.167Z,12.79
2023-03-31T23:56:23.067Z,12.70
2023-03-31T23:58:51.415Z,12.80
